sensor_id;sensor_type;location;lat;lon;timestamp;temperature;humidity
8965;DHT22;4517;49.020;12.066;2023-01-09T00:02:08;3.20;99.90
8965;DHT22;4517;49.020;12.066;2023-01-09T00:04:34;3.20;99.90
8965;DHT22;4517;49.020;12.066;2023-01-09T00:07:00;3.20;99.90
8965;DHT22;4517;49.020;12.066;2023-01-09T00:09:25;3.20;99.90
8965;DHT22;4517;49.020;12.066;2023-01-09T00:11:51;3.20;99.90
8965;DHT22;4517;49.020;12.066;2023-01-09T00:14:17;3.20;99.90
8965;DHT22;4517;49.020;12.066;2023-01-09T00:16:43;3.20;99.90
8965;DHT22;4517;49.020;12.066;2023-01-09T00:19:09;3.20;99.90
8965;DHT22;4517;49.020;12.066;2023-01-09T00:21:35;3.20;99.90
8965;DHT22;4517;49.020;12.066;2023-01-09T00:24:01;3.10;99.90
8965;DHT22;4517;49.020;12.066;2023-01-09T00:26:26;3.10;99.90
8965;DHT22;4517;49.020;12.066;2023-01-09T00:28:52;3.10;99.90
8965;DHT22;4517;49.020;12.066;2023-01-09T00:31:19;3.20;99.90
8965;DHT22;4517;49.020;12.066;2023-01-09T00:33:59;3.20;99.90
8965;DHT22;4517;49.020;12.066;2023-01-09T00:36:25;3.20;99.90
8965;DHT22;4517;49.020;12.066;2023-01-09T00:38:51;3.20;99.90
8965;DHT22;4517;49.020;12.066;2023-01-09T00:41:21;3.20;99.90
8965;DHT22;4517;49.020;12.066;2023-01-09T00:43:50;3.20;99.90
8965;DHT22;4517;49.020;12.066;2023-01-09T00:46:19;3.20;99.90
8965;DHT22;4517;49.020;12.066;2023-01-09T00:48:46;3.20;99.90
8965;DHT22;4517;49.020;12.066;2023-01-09T00:51:13;3.20;99.90
8965;DHT22;4517;49.020;12.066;2023-01-09T00:53:41;3.20;99.90
8965;DHT22;4517;49.020;12.066;2023-01-09T00:56:12;3.20;99.90
8965;DHT22;4517;49.020;12.066;2023-01-09T00:58:39;3.30;99.90
8965;DHT22;4517;49.020;12.066;2023-01-09T01:01:06;3.30;99.90
8965;DHT22;4517;49.020;12.066;2023-01-09T01:03:31;3.30;99.90
8965;DHT22;4517;49.020;12.066;2023-01-09T01:05:57;3.30;99.90
8965;DHT22;4517;49.020;12.066;2023-01-09T01:08:41;3.30;99.90
8965;DHT22;4517;49.020;12.066;2023-01-09T01:11:08;3.40;99.90
8965;DHT22;4517;49.020;12.066;2023-01-09T01:13:35;3.40;99.90
8965;DHT22;4517;49.020;12.066;2023-01-09T01:16:03;3.40;99.90
8965;DHT22;4517;49.020;12.066;2023-01-09T01:18:29;3.40;99.90
8965;DHT22;4517;49.020;12.066;2023-01-09T01:20:55;3.40;99.90
8965;DHT22;4517;49.020;12.066;2023-01-09T01:23:20;3.30;99.90
8965;DHT22;4517;49.020;12.066;2023-01-09T01:25:46;3.30;99.90
8965;DHT22;4517;49.020;12.066;2023-01-09T01:28:12;3.30;99.90
8965;DHT22;4517;49.020;12.066;2023-01-09T01:30:39;3.30;99.90
8965;DHT22;4517;49.020;12.066;2023-01-09T01:33:05;3.30;99.90
8965;DHT22;4517;49.020;12.066;2023-01-09T01:35:30;3.30;99.90
8965;DHT22;4517;49.020;12.066;2023-01-09T01:37:56;3.20;99.90
8965;DHT22;4517;49.020;12.066;2023-01-09T01:40:22;3.30;99.90
8965;DHT22;4517;49.020;12.066;2023-01-09T01:42:49;3.20;99.90
8965;DHT22;4517;49.020;12.066;2023-01-09T01:45:18;3.20;99.90
8965;DHT22;4517;49.020;12.066;2023-01-09T01:47:49;3.20;99.90
8965;DHT22;4517;49.020;12.066;2023-01-09T01:53:18;3.20;99.90
8965;DHT22;4517;49.020;12.066;2023-01-09T01:58:25;3.10;99.90
8965;DHT22;4517;49.020;12.066;2023-01-09T02:00:51;3.10;99.90
8965;DHT22;4517;49.020;12.066;2023-01-09T02:03:19;3.10;99.90
8965;DHT22;4517;49.020;12.066;2023-01-09T02:05:46;3.10;99.90
8965;DHT22;4517;49.020;12.066;2023-01-09T02:08:11;3.10;99.90
8965;DHT22;4517;49.020;12.066;2023-01-09T02:10:38;3.10;99.90
8965;DHT22;4517;49.020;12.066;2023-01-09T02:13:05;3.10;99.90
8965;DHT22;4517;49.020;12.066;2023-01-09T02:15:42;3.10;99.90
8965;DHT22;4517;49.020;12.066;2023-01-09T02:18:27;3.10;99.90
8965;DHT22;4517;49.020;12.066;2023-01-09T02:21:05;3.10;99.90
8965;DHT22;4517;49.020;12.066;2023-01-09T02:31:42;3.10;99.90
8965;DHT22;4517;49.020;12.066;2023-01-09T02:37:16;3.10;99.90
8965;DHT22;4517;49.020;12.066;2023-01-09T02:42:20;3.10;99.90
8965;DHT22;4517;49.020;12.066;2023-01-09T02:44:47;3.10;99.90
8965;DHT22;4517;49.020;12.066;2023-01-09T02:49:50;3.10;99.90
8965;DHT22;4517;49.020;12.066;2023-01-09T02:55:18;3.00;99.90
8965;DHT22;4517;49.020;12.066;2023-01-09T03:00:44;3.10;99.90
8965;DHT22;4517;49.020;12.066;2023-01-09T03:03:33;3.10;99.90
8965;DHT22;4517;49.020;12.066;2023-01-09T03:06:22;3.10;99.90
8965;DHT22;4517;49.020;12.066;2023-01-09T03:09:00;3.10;99.90
8965;DHT22;4517;49.020;12.066;2023-01-09T03:11:29;3.10;99.90
8965;DHT22;4517;49.020;12.066;2023-01-09T03:14:03;3.10;99.90
8965;DHT22;4517;49.020;12.066;2023-01-09T03:16:36;3.10;99.90
8965;DHT22;4517;49.020;12.066;2023-01-09T03:19:05;3.10;99.90
8965;DHT22;4517;49.020;12.066;2023-01-09T03:21:32;3.10;99.90
8965;DHT22;4517;49.020;12.066;2023-01-09T03:24:00;3.10;99.90
8965;DHT22;4517;49.020;12.066;2023-01-09T03:26:27;3.10;99.90
8965;DHT22;4517;49.020;12.066;2023-01-09T03:28:57;3.10;99.90
8965;DHT22;4517;49.020;12.066;2023-01-09T03:31:23;3.10;99.90
8965;DHT22;4517;49.020;12.066;2023-01-09T03:33:48;3.10;99.90
8965;DHT22;4517;49.020;12.066;2023-01-09T03:36:15;3.10;99.90
8965;DHT22;4517;49.020;12.066;2023-01-09T03:38:41;3.10;99.90
8965;DHT22;4517;49.020;12.066;2023-01-09T03:41:07;3.10;99.90
8965;DHT22;4517;49.020;12.066;2023-01-09T03:43:32;3.10;99.90
8965;DHT22;4517;49.020;12.066;2023-01-09T03:45:58;3.10;99.90
8965;DHT22;4517;49.020;12.066;2023-01-09T03:48:24;3.10;99.90
8965;DHT22;4517;49.020;12.066;2023-01-09T03:50:51;3.10;99.90
8965;DHT22;4517;49.020;12.066;2023-01-09T03:53:18;3.10;99.90
8965;DHT22;4517;49.020;12.066;2023-01-09T03:55:48;3.10;99.90
8965;DHT22;4517;49.020;12.066;2023-01-09T03:58:15;3.10;99.90
8965;DHT22;4517;49.020;12.066;2023-01-09T04:00:41;3.10;99.90
8965;DHT22;4517;49.020;12.066;2023-01-09T04:03:07;3.10;99.90
8965;DHT22;4517;49.020;12.066;2023-01-09T04:05:34;3.10;99.90
8965;DHT22;4517;49.020;12.066;2023-01-09T04:08:00;3.10;99.90
8965;DHT22;4517;49.020;12.066;2023-01-09T04:10:25;3.10;99.90
8965;DHT22;4517;49.020;12.066;2023-01-09T04:12:51;3.10;99.90
8965;DHT22;4517;49.020;12.066;2023-01-09T04:15:18;3.10;99.90
8965;DHT22;4517;49.020;12.066;2023-01-09T04:17:43;3.10;99.90
8965;DHT22;4517;49.020;12.066;2023-01-09T04:20:09;3.10;99.90
8965;DHT22;4517;49.020;12.066;2023-01-09T04:22:35;3.10;99.90
8965;DHT22;4517;49.020;12.066;2023-01-09T04:25:01;3.10;99.90
8965;DHT22;4517;49.020;12.066;2023-01-09T04:27:27;3.10;99.90
8965;DHT22;4517;49.020;12.066;2023-01-09T04:29:53;3.10;99.90
8965;DHT22;4517;49.020;12.066;2023-01-09T04:32:20;3.10;99.90
8965;DHT22;4517;49.020;12.066;2023-01-09T04:34:54;3.10;99.90
8965;DHT22;4517;49.020;12.066;2023-01-09T04:37:21;3.10;99.90
8965;DHT22;4517;49.020;12.066;2023-01-09T04:39:47;3.10;99.90
8965;DHT22;4517;49.020;12.066;2023-01-09T04:42:13;3.10;99.90
8965;DHT22;4517;49.020;12.066;2023-01-09T04:44:39;3.10;99.90
8965;DHT22;4517;49.020;12.066;2023-01-09T04:47:04;3.10;99.90
8965;DHT22;4517;49.020;12.066;2023-01-09T04:49:30;3.10;99.90
8965;DHT22;4517;49.020;12.066;2023-01-09T04:51:56;3.10;99.90
8965;DHT22;4517;49.020;12.066;2023-01-09T04:54:22;3.10;99.90
8965;DHT22;4517;49.020;12.066;2023-01-09T04:56:48;3.10;99.90
8965;DHT22;4517;49.020;12.066;2023-01-09T04:59:13;3.20;99.90
8965;DHT22;4517;49.020;12.066;2023-01-09T05:01:39;3.20;99.90
8965;DHT22;4517;49.020;12.066;2023-01-09T05:04:06;3.20;99.90
8965;DHT22;4517;49.020;12.066;2023-01-09T05:06:32;3.20;99.90
8965;DHT22;4517;49.020;12.066;2023-01-09T05:08:59;3.20;99.90
8965;DHT22;4517;49.020;12.066;2023-01-09T05:11:25;3.20;99.90
8965;DHT22;4517;49.020;12.066;2023-01-09T05:13:51;3.20;99.90
8965;DHT22;4517;49.020;12.066;2023-01-09T05:16:17;3.10;99.90
8965;DHT22;4517;49.020;12.066;2023-01-09T05:18:42;3.10;99.90
8965;DHT22;4517;49.020;12.066;2023-01-09T05:21:08;3.20;99.90
8965;DHT22;4517;49.020;12.066;2023-01-09T05:23:34;3.20;99.90
8965;DHT22;4517;49.020;12.066;2023-01-09T05:26:00;3.20;99.90
8965;DHT22;4517;49.020;12.066;2023-01-09T05:28:25;3.20;99.90
8965;DHT22;4517;49.020;12.066;2023-01-09T05:30:51;3.20;99.90
8965;DHT22;4517;49.020;12.066;2023-01-09T05:33:16;3.20;99.90
8965;DHT22;4517;49.020;12.066;2023-01-09T05:35:42;3.30;99.90
8965;DHT22;4517;49.020;12.066;2023-01-09T05:38:07;3.30;99.90
8965;DHT22;4517;49.020;12.066;2023-01-09T05:40:33;3.30;99.90
8965;DHT22;4517;49.020;12.066;2023-01-09T05:42:58;3.30;99.90
8965;DHT22;4517;49.020;12.066;2023-01-09T05:45:24;3.30;99.90
8965;DHT22;4517;49.020;12.066;2023-01-09T05:47:51;3.30;99.90
8965;DHT22;4517;49.020;12.066;2023-01-09T05:50:16;3.30;99.90
8965;DHT22;4517;49.020;12.066;2023-01-09T05:52:42;3.30;99.90
8965;DHT22;4517;49.020;12.066;2023-01-09T05:55:08;3.30;99.90
8965;DHT22;4517;49.020;12.066;2023-01-09T05:57:33;3.30;99.90
8965;DHT22;4517;49.020;12.066;2023-01-09T05:59:59;3.30;99.90
8965;DHT22;4517;49.020;12.066;2023-01-09T06:02:24;3.30;99.90
8965;DHT22;4517;49.020;12.066;2023-01-09T06:04:50;3.40;99.90
8965;DHT22;4517;49.020;12.066;2023-01-09T06:07:15;3.40;99.90
8965;DHT22;4517;49.020;12.066;2023-01-09T06:09:41;3.50;99.90
8965;DHT22;4517;49.020;12.066;2023-01-09T06:12:07;3.60;99.90
8965;DHT22;4517;49.020;12.066;2023-01-09T06:14:32;3.60;99.90
8965;DHT22;4517;49.020;12.066;2023-01-09T06:16:58;3.50;99.90
8965;DHT22;4517;49.020;12.066;2023-01-09T06:19:24;3.50;99.90
8965;DHT22;4517;49.020;12.066;2023-01-09T06:21:49;3.50;99.90
8965;DHT22;4517;49.020;12.066;2023-01-09T06:24:15;3.50;99.90
8965;DHT22;4517;49.020;12.066;2023-01-09T06:26:41;3.50;99.90
8965;DHT22;4517;49.020;12.066;2023-01-09T06:29:07;3.50;99.90
8965;DHT22;4517;49.020;12.066;2023-01-09T06:31:32;3.50;99.90
8965;DHT22;4517;49.020;12.066;2023-01-09T06:33:58;3.50;99.90
8965;DHT22;4517;49.020;12.066;2023-01-09T06:36:25;3.50;99.90
8965;DHT22;4517;49.020;12.066;2023-01-09T06:38:50;3.50;99.90
8965;DHT22;4517;49.020;12.066;2023-01-09T06:41:16;3.50;99.90
8965;DHT22;4517;49.020;12.066;2023-01-09T06:43:42;3.50;99.90
8965;DHT22;4517;49.020;12.066;2023-01-09T06:46:08;3.50;99.90
8965;DHT22;4517;49.020;12.066;2023-01-09T06:48:34;3.50;99.90
8965;DHT22;4517;49.020;12.066;2023-01-09T06:51:00;3.50;99.90
8965;DHT22;4517;49.020;12.066;2023-01-09T06:53:25;3.50;99.90
8965;DHT22;4517;49.020;12.066;2023-01-09T06:55:51;3.50;99.90
8965;DHT22;4517;49.020;12.066;2023-01-09T06:58:18;3.50;99.90
8965;DHT22;4517;49.020;12.066;2023-01-09T07:00:43;3.60;99.90
8965;DHT22;4517;49.020;12.066;2023-01-09T07:03:09;3.60;99.90
8965;DHT22;4517;49.020;12.066;2023-01-09T07:05:41;3.50;99.90
8965;DHT22;4517;49.020;12.066;2023-01-09T07:08:07;3.50;99.90
8965;DHT22;4517;49.020;12.066;2023-01-09T07:10:33;3.50;99.90
8965;DHT22;4517;49.020;12.066;2023-01-09T07:12:58;3.40;99.90
8965;DHT22;4517;49.020;12.066;2023-01-09T07:15:24;3.40;99.90
8965;DHT22;4517;49.020;12.066;2023-01-09T07:17:53;3.40;99.90
8965;DHT22;4517;49.020;12.066;2023-01-09T07:20:19;3.40;99.90
8965;DHT22;4517;49.020;12.066;2023-01-09T07:22:45;3.60;99.90
8965;DHT22;4517;49.020;12.066;2023-01-09T07:25:11;3.70;99.90
8965;DHT22;4517;49.020;12.066;2023-01-09T07:27:37;3.80;99.90
8965;DHT22;4517;49.020;12.066;2023-01-09T07:30:04;4.00;99.90
8965;DHT22;4517;49.020;12.066;2023-01-09T07:32:30;4.10;99.90
8965;DHT22;4517;49.020;12.066;2023-01-09T07:34:56;4.20;99.90
8965;DHT22;4517;49.020;12.066;2023-01-09T07:37:21;4.30;99.90
8965;DHT22;4517;49.020;12.066;2023-01-09T07:39:47;4.30;99.90
8965;DHT22;4517;49.020;12.066;2023-01-09T07:42:13;4.50;99.90
8965;DHT22;4517;49.020;12.066;2023-01-09T07:44:39;4.60;99.90
8965;DHT22;4517;49.020;12.066;2023-01-09T07:47:04;4.70;99.90
8965;DHT22;4517;49.020;12.066;2023-01-09T07:49:30;4.70;99.90
8965;DHT22;4517;49.020;12.066;2023-01-09T07:51:56;4.70;99.90
8965;DHT22;4517;49.020;12.066;2023-01-09T07:54:21;4.80;99.90
8965;DHT22;4517;49.020;12.066;2023-01-09T07:56:47;4.80;99.90
8965;DHT22;4517;49.020;12.066;2023-01-09T07:59:13;4.90;99.90
8965;DHT22;4517;49.020;12.066;2023-01-09T08:01:38;4.90;99.90
8965;DHT22;4517;49.020;12.066;2023-01-09T08:04:04;5.00;99.90
8965;DHT22;4517;49.020;12.066;2023-01-09T08:06:30;5.10;99.90
8965;DHT22;4517;49.020;12.066;2023-01-09T08:08:56;5.20;99.90
8965;DHT22;4517;49.020;12.066;2023-01-09T08:11:23;5.40;99.90
8965;DHT22;4517;49.020;12.066;2023-01-09T08:13:48;5.50;99.90
8965;DHT22;4517;49.020;12.066;2023-01-09T08:16:14;5.40;99.90
8965;DHT22;4517;49.020;12.066;2023-01-09T08:18:40;5.40;99.90
8965;DHT22;4517;49.020;12.066;2023-01-09T08:21:06;5.40;99.90
8965;DHT22;4517;49.020;12.066;2023-01-09T08:23:31;5.50;99.90
8965;DHT22;4517;49.020;12.066;2023-01-09T08:25:58;5.50;99.90
8965;DHT22;4517;49.020;12.066;2023-01-09T08:28:23;5.50;99.90
8965;DHT22;4517;49.020;12.066;2023-01-09T08:30:49;5.60;99.90
8965;DHT22;4517;49.020;12.066;2023-01-09T08:33:15;5.60;99.90
8965;DHT22;4517;49.020;12.066;2023-01-09T08:35:42;5.70;99.90
8965;DHT22;4517;49.020;12.066;2023-01-09T08:38:08;5.80;99.90
8965;DHT22;4517;49.020;12.066;2023-01-09T08:40:34;5.90;99.90
8965;DHT22;4517;49.020;12.066;2023-01-09T08:43:00;6.10;99.90
8965;DHT22;4517;49.020;12.066;2023-01-09T08:45:44;6.10;99.90
8965;DHT22;4517;49.020;12.066;2023-01-09T08:48:28;6.10;99.90
8965;DHT22;4517;49.020;12.066;2023-01-09T08:50:54;6.20;99.90
8965;DHT22;4517;49.020;12.066;2023-01-09T08:53:19;6.30;99.90
8965;DHT22;4517;49.020;12.066;2023-01-09T08:55:45;6.50;99.90
8965;DHT22;4517;49.020;12.066;2023-01-09T08:58:10;6.60;99.90
8965;DHT22;4517;49.020;12.066;2023-01-09T09:00:36;6.60;99.90
8965;DHT22;4517;49.020;12.066;2023-01-09T09:03:02;6.70;99.90
8965;DHT22;4517;49.020;12.066;2023-01-09T09:05:29;6.70;99.90
8965;DHT22;4517;49.020;12.066;2023-01-09T09:07:56;6.80;99.90
8965;DHT22;4517;49.020;12.066;2023-01-09T09:10:23;6.80;99.90
8965;DHT22;4517;49.020;12.066;2023-01-09T09:12:50;6.80;99.90
8965;DHT22;4517;49.020;12.066;2023-01-09T09:15:16;6.80;99.90
8965;DHT22;4517;49.020;12.066;2023-01-09T09:17:56;6.80;99.90
8965;DHT22;4517;49.020;12.066;2023-01-09T09:20:25;6.80;99.90
8965;DHT22;4517;49.020;12.066;2023-01-09T09:22:52;6.70;99.90
8965;DHT22;4517;49.020;12.066;2023-01-09T09:25:18;6.70;99.90
8965;DHT22;4517;49.020;12.066;2023-01-09T09:27:45;6.60;99.90
8965;DHT22;4517;49.020;12.066;2023-01-09T09:30:12;6.70;99.90
8965;DHT22;4517;49.020;12.066;2023-01-09T09:32:39;6.70;99.90
8965;DHT22;4517;49.020;12.066;2023-01-09T09:35:05;6.80;99.90
8965;DHT22;4517;49.020;12.066;2023-01-09T09:37:31;6.80;99.90
8965;DHT22;4517;49.020;12.066;2023-01-09T09:39:57;6.80;99.90
8965;DHT22;4517;49.020;12.066;2023-01-09T09:42:30;6.90;99.90
8965;DHT22;4517;49.020;12.066;2023-01-09T09:45:54;6.90;99.90
8965;DHT22;4517;49.020;12.066;2023-01-09T09:48:35;7.00;99.90
8965;DHT22;4517;49.020;12.066;2023-01-09T09:51:17;7.20;99.90
8965;DHT22;4517;49.020;12.066;2023-01-09T09:53:59;7.30;99.90
8965;DHT22;4517;49.020;12.066;2023-01-09T09:56:29;7.40;99.90
8965;DHT22;4517;49.020;12.066;2023-01-09T09:59:00;7.40;99.90
8965;DHT22;4517;49.020;12.066;2023-01-09T10:04:20;7.40;99.90
8965;DHT22;4517;49.020;12.066;2023-01-09T10:07:00;7.40;99.90
8965;DHT22;4517;49.020;12.066;2023-01-09T10:14:42;7.40;99.90
8965;DHT22;4517;49.020;12.066;2023-01-09T10:28:06;7.70;99.90
8965;DHT22;4517;49.020;12.066;2023-01-09T10:30:58;7.70;99.90
8965;DHT22;4517;49.020;12.066;2023-01-09T10:36:37;7.80;99.90
8965;DHT22;4517;49.020;12.066;2023-01-09T10:39:14;7.70;99.90
8965;DHT22;4517;49.020;12.066;2023-01-09T10:44:47;7.70;99.90
8965;DHT22;4517;49.020;12.066;2023-01-09T10:47:28;7.70;99.90
8965;DHT22;4517;49.020;12.066;2023-01-09T10:49:55;7.60;99.90
8965;DHT22;4517;49.020;12.066;2023-01-09T10:52:31;7.50;99.90
8965;DHT22;4517;49.020;12.066;2023-01-09T10:57:43;7.50;99.90
8965;DHT22;4517;49.020;12.066;2023-01-09T11:00:21;7.40;99.90
8965;DHT22;4517;49.020;12.066;2023-01-09T11:02:48;7.50;99.90
8965;DHT22;4517;49.020;12.066;2023-01-09T11:05:20;7.50;99.90
8965;DHT22;4517;49.020;12.066;2023-01-09T11:08:20;7.50;99.90
8965;DHT22;4517;49.020;12.066;2023-01-09T11:10:51;7.70;99.90
8965;DHT22;4517;49.020;12.066;2023-01-09T11:13:24;7.70;99.90
8965;DHT22;4517;49.020;12.066;2023-01-09T11:16:14;7.80;99.90
8965;DHT22;4517;49.020;12.066;2023-01-09T11:18:59;7.80;99.90
8965;DHT22;4517;49.020;12.066;2023-01-09T11:21:35;7.80;99.90
8965;DHT22;4517;49.020;12.066;2023-01-09T11:26:47;7.90;99.90
8965;DHT22;4517;49.020;12.066;2023-01-09T11:29:13;8.00;99.90
8965;DHT22;4517;49.020;12.066;2023-01-09T11:31:40;8.10;99.90
8965;DHT22;4517;49.020;12.066;2023-01-09T11:34:15;8.20;99.90
8965;DHT22;4517;49.020;12.066;2023-01-09T11:36:42;8.30;99.90
8965;DHT22;4517;49.020;12.066;2023-01-09T11:39:20;8.40;99.90
8965;DHT22;4517;49.020;12.066;2023-01-09T11:41:52;8.30;99.90
8965;DHT22;4517;49.020;12.066;2023-01-09T11:44:19;8.30;99.90
8965;DHT22;4517;49.020;12.066;2023-01-09T11:46:45;8.30;99.90
8965;DHT22;4517;49.020;12.066;2023-01-09T11:51:39;8.30;99.90
8965;DHT22;4517;49.020;12.066;2023-01-09T11:54:15;8.30;99.90
8965;DHT22;4517;49.020;12.066;2023-01-09T11:56:42;8.30;99.90
8965;DHT22;4517;49.020;12.066;2023-01-09T11:59:14;8.30;99.90
8965;DHT22;4517;49.020;12.066;2023-01-09T12:04:36;8.50;99.90
8965;DHT22;4517;49.020;12.066;2023-01-09T12:07:27;8.50;99.90
8965;DHT22;4517;49.020;12.066;2023-01-09T12:13:08;8.50;99.90
8965;DHT22;4517;49.020;12.066;2023-01-09T12:16:12;8.30;99.90
8965;DHT22;4517;49.020;12.066;2023-01-09T12:30:00;8.10;99.90
8965;DHT22;4517;49.020;12.066;2023-01-09T12:35:19;7.90;99.90
8965;DHT22;4517;49.020;12.066;2023-01-09T12:40:47;7.80;99.90
8965;DHT22;4517;49.020;12.066;2023-01-09T12:46:24;7.90;99.90
8965;DHT22;4517;49.020;12.066;2023-01-09T12:52:16;7.90;99.90
8965;DHT22;4517;49.020;12.066;2023-01-09T12:54:52;7.80;99.90
8965;DHT22;4517;49.020;12.066;2023-01-09T12:57:40;7.80;99.90
8965;DHT22;4517;49.020;12.066;2023-01-09T13:00:26;7.70;99.90
8965;DHT22;4517;49.020;12.066;2023-01-09T13:02:59;7.70;99.90
8965;DHT22;4517;49.020;12.066;2023-01-09T13:05:34;7.80;99.90
8965;DHT22;4517;49.020;12.066;2023-01-09T13:10:31;8.00;99.90
8965;DHT22;4517;49.020;12.066;2023-01-09T13:13:18;8.20;99.90
8965;DHT22;4517;49.020;12.066;2023-01-09T13:15:50;8.20;99.90
8965;DHT22;4517;49.020;12.066;2023-01-09T13:18:34;8.20;99.90
8965;DHT22;4517;49.020;12.066;2023-01-09T13:21:05;8.10;99.90
8965;DHT22;4517;49.020;12.066;2023-01-09T13:23:51;8.20;99.90
8965;DHT22;4517;49.020;12.066;2023-01-09T13:29:00;8.30;99.90
8965;DHT22;4517;49.020;12.066;2023-01-09T13:34:51;8.40;99.90
8965;DHT22;4517;49.020;12.066;2023-01-09T13:37:24;8.40;99.90
8965;DHT22;4517;49.020;12.066;2023-01-09T13:39:59;8.40;99.90
8965;DHT22;4517;49.020;12.066;2023-01-09T13:42:26;8.30;99.90
8965;DHT22;4517;49.020;12.066;2023-01-09T13:45:30;8.20;99.90
8965;DHT22;4517;49.020;12.066;2023-01-09T13:50:35;8.10;99.90
8965;DHT22;4517;49.020;12.066;2023-01-09T13:56:03;8.00;99.90
8965;DHT22;4517;49.020;12.066;2023-01-09T14:07:37;7.80;99.90
8965;DHT22;4517;49.020;12.066;2023-01-09T14:10:06;7.80;99.90
8965;DHT22;4517;49.020;12.066;2023-01-09T14:12:38;7.80;99.90
8965;DHT22;4517;49.020;12.066;2023-01-09T14:15:06;7.80;99.90
8965;DHT22;4517;49.020;12.066;2023-01-09T14:17:45;7.80;99.90
8965;DHT22;4517;49.020;12.066;2023-01-09T14:20:27;7.90;99.90
8965;DHT22;4517;49.020;12.066;2023-01-09T14:22:58;8.00;99.90
8965;DHT22;4517;49.020;12.066;2023-01-09T14:25:27;7.90;99.90
8965;DHT22;4517;49.020;12.066;2023-01-09T14:35:27;7.20;99.90
8965;DHT22;4517;49.020;12.066;2023-01-09T14:38:26;7.00;99.90
8965;DHT22;4517;49.020;12.066;2023-01-09T14:46:16;6.50;99.90
8965;DHT22;4517;49.020;12.066;2023-01-09T14:48:56;6.40;99.90
8965;DHT22;4517;49.020;12.066;2023-01-09T14:51:23;6.30;99.90
8965;DHT22;4517;49.020;12.066;2023-01-09T14:53:52;6.10;99.90
8965;DHT22;4517;49.020;12.066;2023-01-09T14:56:30;6.00;99.90
8965;DHT22;4517;49.020;12.066;2023-01-09T14:59:04;5.90;99.90
8965;DHT22;4517;49.020;12.066;2023-01-09T15:01:30;5.80;99.90
8965;DHT22;4517;49.020;12.066;2023-01-09T15:04:01;5.70;99.90
8965;DHT22;4517;49.020;12.066;2023-01-09T15:06:29;5.70;99.90
8965;DHT22;4517;49.020;12.066;2023-01-09T15:09:30;5.50;99.90
8965;DHT22;4517;49.020;12.066;2023-01-09T15:12:03;5.40;99.90
8965;DHT22;4517;49.020;12.066;2023-01-09T15:14:41;5.30;99.90
8965;DHT22;4517;49.020;12.066;2023-01-09T15:17:22;5.30;99.90
8965;DHT22;4517;49.020;12.066;2023-01-09T15:19:51;5.30;99.90
8965;DHT22;4517;49.020;12.066;2023-01-09T15:22:31;5.30;99.90
8965;DHT22;4517;49.020;12.066;2023-01-09T15:25:13;5.20;99.90
8965;DHT22;4517;49.020;12.066;2023-01-09T15:27:47;5.20;99.90
8965;DHT22;4517;49.020;12.066;2023-01-09T15:30:20;5.10;99.90
8965;DHT22;4517;49.020;12.066;2023-01-09T15:32:52;5.00;99.90
8965;DHT22;4517;49.020;12.066;2023-01-09T15:35:19;4.90;99.90
8965;DHT22;4517;49.020;12.066;2023-01-09T15:37:47;4.70;99.90
8965;DHT22;4517;49.020;12.066;2023-01-09T15:40:22;4.50;99.90
8965;DHT22;4517;49.020;12.066;2023-01-09T15:42:52;4.50;99.90
8965;DHT22;4517;49.020;12.066;2023-01-09T15:45:44;4.30;99.90
8965;DHT22;4517;49.020;12.066;2023-01-09T15:48:26;4.20;99.90
8965;DHT22;4517;49.020;12.066;2023-01-09T15:51:05;4.10;99.90
8965;DHT22;4517;49.020;12.066;2023-01-09T15:53:34;4.10;99.90
8965;DHT22;4517;49.020;12.066;2023-01-09T15:56:23;4.00;99.90
8965;DHT22;4517;49.020;12.066;2023-01-09T15:58:52;3.90;99.90
8965;DHT22;4517;49.020;12.066;2023-01-09T16:01:24;3.90;99.90
8965;DHT22;4517;49.020;12.066;2023-01-09T16:03:53;4.10;99.90
8965;DHT22;4517;49.020;12.066;2023-01-09T16:06:28;4.20;99.90
8965;DHT22;4517;49.020;12.066;2023-01-09T16:08:57;4.30;99.90
8965;DHT22;4517;49.020;12.066;2023-01-09T16:11:35;4.30;99.90
8965;DHT22;4517;49.020;12.066;2023-01-09T16:14:15;4.40;99.90
8965;DHT22;4517;49.020;12.066;2023-01-09T16:16:42;4.50;99.90
8965;DHT22;4517;49.020;12.066;2023-01-09T16:19:28;4.60;99.90
8965;DHT22;4517;49.020;12.066;2023-01-09T16:21:59;4.80;99.90
8965;DHT22;4517;49.020;12.066;2023-01-09T16:24:27;4.80;99.90
8965;DHT22;4517;49.020;12.066;2023-01-09T16:29:38;4.90;99.90
8965;DHT22;4517;49.020;12.066;2023-01-09T16:32:17;5.00;99.90
8965;DHT22;4517;49.020;12.066;2023-01-09T16:34:43;4.90;99.90
8965;DHT22;4517;49.020;12.066;2023-01-09T16:37:11;4.90;99.90
8965;DHT22;4517;49.020;12.066;2023-01-09T16:39:38;4.90;99.90
8965;DHT22;4517;49.020;12.066;2023-01-09T16:42:07;4.90;99.90
8965;DHT22;4517;49.020;12.066;2023-01-09T16:44:52;4.90;99.90
8965;DHT22;4517;49.020;12.066;2023-01-09T16:47:17;5.00;99.90
8965;DHT22;4517;49.020;12.066;2023-01-09T16:49:43;5.00;99.90
8965;DHT22;4517;49.020;12.066;2023-01-09T16:52:16;5.10;99.90
8965;DHT22;4517;49.020;12.066;2023-01-09T16:54:42;5.10;99.90
8965;DHT22;4517;49.020;12.066;2023-01-09T16:57:15;5.00;99.90
8965;DHT22;4517;49.020;12.066;2023-01-09T16:59:42;5.10;99.90
8965;DHT22;4517;49.020;12.066;2023-01-09T17:02:17;5.10;99.90
8965;DHT22;4517;49.020;12.066;2023-01-09T17:04:43;5.00;99.90
8965;DHT22;4517;49.020;12.066;2023-01-09T17:07:14;5.00;99.90
8965;DHT22;4517;49.020;12.066;2023-01-09T17:09:41;5.00;99.90
8965;DHT22;4517;49.020;12.066;2023-01-09T17:12:19;4.90;99.90
8965;DHT22;4517;49.020;12.066;2023-01-09T17:14:45;4.90;99.90
8965;DHT22;4517;49.020;12.066;2023-01-09T17:17:11;4.90;99.90
8965;DHT22;4517;49.020;12.066;2023-01-09T17:19:37;4.80;99.90
8965;DHT22;4517;49.020;12.066;2023-01-09T17:22:03;4.80;99.90
8965;DHT22;4517;49.020;12.066;2023-01-09T17:24:29;4.70;99.90
8965;DHT22;4517;49.020;12.066;2023-01-09T17:27:13;4.60;99.90
8965;DHT22;4517;49.020;12.066;2023-01-09T17:29:58;4.40;99.90
8965;DHT22;4517;49.020;12.066;2023-01-09T17:32:23;4.30;99.90
8965;DHT22;4517;49.020;12.066;2023-01-09T17:34:49;4.30;99.90
8965;DHT22;4517;49.020;12.066;2023-01-09T17:37:16;4.10;99.90
8965;DHT22;4517;49.020;12.066;2023-01-09T17:39:42;4.00;99.90
8965;DHT22;4517;49.020;12.066;2023-01-09T17:42:08;3.80;99.90
8965;DHT22;4517;49.020;12.066;2023-01-09T17:44:34;3.80;99.90
8965;DHT22;4517;49.020;12.066;2023-01-09T17:46:59;4.00;99.90
8965;DHT22;4517;49.020;12.066;2023-01-09T17:49:25;4.10;99.90
8965;DHT22;4517;49.020;12.066;2023-01-09T17:51:52;4.20;99.90
8965;DHT22;4517;49.020;12.066;2023-01-09T17:54:17;4.20;99.90
8965;DHT22;4517;49.020;12.066;2023-01-09T17:56:49;4.20;99.90
8965;DHT22;4517;49.020;12.066;2023-01-09T17:59:15;4.10;99.90
8965;DHT22;4517;49.020;12.066;2023-01-09T18:01:42;4.10;99.90
8965;DHT22;4517;49.020;12.066;2023-01-09T18:04:09;4.00;99.90
8965;DHT22;4517;49.020;12.066;2023-01-09T18:06:35;4.00;99.90
8965;DHT22;4517;49.020;12.066;2023-01-09T18:09:02;4.00;99.90
8965;DHT22;4517;49.020;12.066;2023-01-09T18:11:28;3.90;99.90
8965;DHT22;4517;49.020;12.066;2023-01-09T18:13:54;3.90;99.90
8965;DHT22;4517;49.020;12.066;2023-01-09T18:16:25;4.00;99.90
8965;DHT22;4517;49.020;12.066;2023-01-09T18:18:53;4.20;99.90
8965;DHT22;4517;49.020;12.066;2023-01-09T18:21:22;4.20;99.90
8965;DHT22;4517;49.020;12.066;2023-01-09T18:23:48;4.30;99.90
8965;DHT22;4517;49.020;12.066;2023-01-09T18:26:15;4.30;99.90
8965;DHT22;4517;49.020;12.066;2023-01-09T18:28:49;4.40;99.90